三亜 の空港の天気 - METARとTAF

三亜鳳凰国際空港 ( ZJSY / SYX ) - 中国 海南省三亜市
飛行場実況気象(Metar)
観測時間01/23 07:00 CST (01/22 23:00 UTC)
風向・風速東 3m/s
視程10km以上
天気現象
全天の8割程度の雲 雲底高度 1010m
気温22℃
湿度83%
気圧1015hPa
METARZJSY 222300Z 08003MPS 9999 BKN033 22/19 Q1015 NOSIG
過去の天気等 Google飛行場航空写真 Wunderground天気予報

過去48時間のMETAR

飛行場予報(TAF)
発表時間: 1/22 23:00 CST (1/22 15:00 UTC)
予報対象時間: 23日2時 CST ~ 24日2時 CST
風向・風速東 4m/s
視程10km以上
少しの雲 雲底高度 610m
TAF ZJSY 221500Z 2218/2318 10004MPS 9999 FEW020 TX29/2306Z TN20/2221Z